createdAt,value
2022-10-07T00:01:10.905Z,29.30
2022-10-07T00:03:39.183Z,29.30
2022-10-07T00:06:10.826Z,29.30
2022-10-07T00:08:40.759Z,29.00
2022-10-07T00:11:13.150Z,29.30
2022-10-07T00:13:43.323Z,29.60
2022-10-07T00:16:14.488Z,29.50
2022-10-07T00:18:43.767Z,29.10
2022-10-07T00:21:15.099Z,29.50
2022-10-07T00:23:44.477Z,29.60
2022-10-07T00:26:16.685Z,29.80
2022-10-07T00:28:45.042Z,29.60
2022-10-07T00:31:17.784Z,30.00
2022-10-07T00:33:46.583Z,29.80
2022-10-07T00:36:17.580Z,29.90
2022-10-07T00:38:46.260Z,30.00
2022-10-07T00:41:20.234Z,30.10
2022-10-07T00:43:48.665Z,29.70
2022-10-07T00:46:30.604Z,29.90
2022-10-07T00:49:02.566Z,30.20
2022-10-07T00:51:33.265Z,30.20
2022-10-07T00:54:03.902Z,30.20
2022-10-07T00:56:34.886Z,29.80
2022-10-07T00:59:03.298Z,30.10
2022-10-07T01:01:31.430Z,29.80
2022-10-07T01:03:59.505Z,30.00
2022-10-07T01:06:27.566Z,30.00
2022-10-07T01:08:57.485Z,30.00
2022-10-07T01:11:51.954Z,30.10
2022-10-07T01:14:31.162Z,30.70
2022-10-07T01:17:05.381Z,30.50
2022-10-07T01:20:03.424Z,30.60
2022-10-07T01:22:42.221Z,30.10
2022-10-07T01:25:28.126Z,30.70
2022-10-07T01:28:02.844Z,30.50
2022-10-07T01:30:33.192Z,30.10
2022-10-07T01:33:06.078Z,30.50
2022-10-07T01:35:37.193Z,30.90
2022-10-07T01:38:10.575Z,30.80
2022-10-07T01:40:49.200Z,31.50
2022-10-07T01:43:22.264Z,31.20
2022-10-07T01:45:54.589Z,31.10
2022-10-07T01:48:22.725Z,31.10
2022-10-07T01:50:53.889Z,31.20
2022-10-07T01:53:36.555Z,31.10
2022-10-07T01:56:24.236Z,31.10
2022-10-07T01:59:21.272Z,30.90
2022-10-07T02:02:00.791Z,31.20
2022-10-07T02:04:46.080Z,31.50
2022-10-07T02:07:26.341Z,31.50
2022-10-07T02:10:00.226Z,31.10
2022-10-07T02:12:35.671Z,31.50
2022-10-07T02:15:18.145Z,31.20
2022-10-07T02:17:51.221Z,31.50
2022-10-07T02:20:23.296Z,31.70
2022-10-07T02:22:54.368Z,31.80
2022-10-07T02:25:23.392Z,31.70
2022-10-07T02:27:55.021Z,31.80
2022-10-07T02:30:24.818Z,32.00
2022-10-07T02:32:56.198Z,31.70
2022-10-07T02:35:31.635Z,31.50
2022-10-07T02:38:03.450Z,32.20
2022-10-07T02:40:39.651Z,32.00
2022-10-07T02:43:15.499Z,32.10
2022-10-07T02:45:50.918Z,32.30
2022-10-07T02:48:24.613Z,32.40
2022-10-07T02:50:58.173Z,32.20
2022-10-07T02:53:32.166Z,32.30
2022-10-07T02:56:02.604Z,32.10
2022-10-07T02:58:31.172Z,32.20
2022-10-07T03:01:02.228Z,32.50
2022-10-07T03:03:31.276Z,32.10
2022-10-07T03:05:59.888Z,32.50
2022-10-07T03:08:28.035Z,32.30
2022-10-07T03:10:56.006Z,32.50
2022-10-07T03:13:24.737Z,32.20
2022-10-07T03:15:52.882Z,32.40
2022-10-07T03:18:28.502Z,32.70
2022-10-07T03:20:57.955Z,32.90
2022-10-07T03:23:26.938Z,32.40
2022-10-07T03:25:58.059Z,32.90
2022-10-07T03:28:28.054Z,33.00
2022-10-07T03:30:56.200Z,32.80
2022-10-07T03:33:25.658Z,32.80
2022-10-07T03:35:53.846Z,33.30
2022-10-07T03:38:22.580Z,32.70
2022-10-07T03:40:50.783Z,33.00
2022-10-07T03:43:18.749Z,33.20
2022-10-07T03:45:51.871Z,32.90
2022-10-07T03:48:19.918Z,33.50
2022-10-07T03:50:52.976Z,33.10
2022-10-07T03:53:21.525Z,33.40
2022-10-07T03:55:49.532Z,33.70
2022-10-07T03:58:17.606Z,33.80
2022-10-07T04:00:45.684Z,34.00
2022-10-07T04:03:15.767Z,34.00
2022-10-07T04:05:45.160Z,34.00
2022-10-07T04:08:17.245Z,33.80
2022-10-07T04:10:45.479Z,33.60
2022-10-07T04:13:13.426Z,33.50
2022-10-07T04:15:41.375Z,33.80
2022-10-07T04:18:11.854Z,34.10
2022-10-07T04:20:39.951Z,33.80
2022-10-07T04:23:08.568Z,34.00
2022-10-07T04:25:38.506Z,34.10
2022-10-07T04:28:09.378Z,33.70
2022-10-07T04:30:43.570Z,34.40
2022-10-07T04:33:13.337Z,33.90
2022-10-07T04:35:41.782Z,33.70
2022-10-07T04:38:11.175Z,34.10
2022-10-07T04:40:45.280Z,33.80
2022-10-07T04:43:23.208Z,34.10
2022-10-07T04:45:54.453Z,34.00
2022-10-07T04:48:24.309Z,34.00
2022-10-07T04:50:52.817Z,34.20
2022-10-07T04:53:22.038Z,33.80
2022-10-07T04:55:52.373Z,34.30
2022-10-07T04:58:21.124Z,34.20
2022-10-07T05:00:51.627Z,33.70
2022-10-07T05:03:21.686Z,34.10
2022-10-07T05:05:51.905Z,34.10
2022-10-07T05:08:22.512Z,34.60
2022-10-07T05:10:56.593Z,34.40
2022-10-07T05:13:26.191Z,34.80
2022-10-07T05:15:56.061Z,33.90
2022-10-07T05:18:26.294Z,33.90
2022-10-07T05:20:54.563Z,34.30
2022-10-07T05:23:28.897Z,34.70
2022-10-07T05:26:04.464Z,35.10
2022-10-07T05:28:32.708Z,35.20
2022-10-07T05:31:06.536Z,34.80
2022-10-07T05:33:34.620Z,35.40
2022-10-07T05:36:03.780Z,35.00
2022-10-07T05:38:31.745Z,34.40
2022-10-07T05:41:02.934Z,35.50
2022-10-07T05:43:34.735Z,34.80
2022-10-07T05:46:05.079Z,34.90
2022-10-07T05:48:39.038Z,34.10
2022-10-07T05:51:08.937Z,34.10
2022-10-07T05:53:40.972Z,34.10
2022-10-07T05:56:13.048Z,35.30
2022-10-07T05:58:41.482Z,35.50
2022-10-07T06:01:15.850Z,35.00
2022-10-07T06:03:45.720Z,35.10
2022-10-07T06:06:13.684Z,35.50
2022-10-07T06:08:41.701Z,35.20
2022-10-07T06:11:32.960Z,34.50
2022-10-07T06:14:01.105Z,34.70
2022-10-07T06:16:29.709Z,34.00
2022-10-07T06:18:57.948Z,33.30
2022-10-07T06:21:28.066Z,32.60
2022-10-07T06:23:58.251Z,31.70
2022-10-07T06:26:27.805Z,31.10
2022-10-07T06:28:55.732Z,30.40
2022-10-07T06:31:25.544Z,28.60
2022-10-07T06:33:54.289Z,29.10
2022-10-07T06:36:22.714Z,29.30
2022-10-07T06:38:52.791Z,28.70
2022-10-07T06:41:21.356Z,27.90
2022-10-07T06:43:50.933Z,28.10
2022-10-07T06:46:20.991Z,28.00
2022-10-07T06:48:49.002Z,27.70
2022-10-07T06:51:19.542Z,27.50
2022-10-07T06:53:52.627Z,27.70
2022-10-07T06:56:20.644Z,27.70
2022-10-07T06:58:50.734Z,27.10
2022-10-07T07:01:18.935Z,27.50
2022-10-07T07:03:47.238Z,27.10
2022-10-07T07:06:15.359Z,27.10
2022-10-07T07:08:45.707Z,27.00
2022-10-07T07:11:33.024Z,26.80
2022-10-07T07:14:03.166Z,27.00
2022-10-07T07:16:32.030Z,26.40
2022-10-07T07:19:04.015Z,26.80
2022-10-07T07:21:33.462Z,26.30
2022-10-07T07:24:02.238Z,25.30
2022-10-07T07:26:30.623Z,22.50
2022-10-07T07:29:00.675Z,22.30
2022-10-07T07:31:32.631Z,22.40
2022-10-07T07:34:03.870Z,23.50
2022-10-07T07:36:33.846Z,23.50
2022-10-07T07:39:05.092Z,23.20
2022-10-07T07:41:36.357Z,23.90
2022-10-07T07:44:07.660Z,23.50
2022-10-07T07:46:41.240Z,23.80
2022-10-07T07:49:11.270Z,22.70
2022-10-07T07:51:42.383Z,24.50
2022-10-07T07:54:11.261Z,25.20
2022-10-07T07:56:39.328Z,25.00
2022-10-07T07:59:08.029Z,23.70
2022-10-07T08:01:37.559Z,23.50
2022-10-07T08:04:05.896Z,23.50
2022-10-07T08:06:34.485Z,23.80
2022-10-07T08:09:02.517Z,23.50
2022-10-07T08:11:32.660Z,23.80
2022-10-07T08:14:00.912Z,24.00
2022-10-07T08:16:30.507Z,23.90
2022-10-07T08:18:59.950Z,25.10
2022-10-07T08:21:32.805Z,24.90
2022-10-07T08:24:03.764Z,24.70
2022-10-07T08:26:34.589Z,24.60
2022-10-07T08:29:02.819Z,24.60
2022-10-07T08:31:31.370Z,24.80
2022-10-07T08:34:03.154Z,24.60
2022-10-07T08:36:34.228Z,24.60
2022-10-07T08:39:04.345Z,24.50
2022-10-07T08:41:59.328Z,24.20
2022-10-07T08:44:31.969Z,23.60
2022-10-07T08:47:07.677Z,24.20
2022-10-07T08:49:50.043Z,24.00
2022-10-07T08:52:35.738Z,23.80
2022-10-07T08:55:05.239Z,23.40
2022-10-07T08:57:48.698Z,23.00
2022-10-07T09:00:22.282Z,23.20
2022-10-07T09:03:07.338Z,22.80
2022-10-07T09:05:42.004Z,23.00
2022-10-07T09:08:17.304Z,22.70
2022-10-07T09:10:49.867Z,22.70
2022-10-07T09:13:22.042Z,23.00
2022-10-07T09:15:54.555Z,22.70
2022-10-07T09:18:29.293Z,22.50
2022-10-07T09:20:59.575Z,22.50
2022-10-07T09:23:33.491Z,22.50
2022-10-07T09:26:01.612Z,22.30
2022-10-07T09:28:31.844Z,22.20
2022-10-07T09:31:02.784Z,22.20
2022-10-07T09:33:31.293Z,22.40
2022-10-07T09:36:09.108Z,21.90
2022-10-07T09:38:40.122Z,22.10
2022-10-07T09:41:19.537Z,21.70
2022-10-07T09:43:59.760Z,21.70
2022-10-07T09:46:46.704Z,22.00
2022-10-07T09:49:43.001Z,22.10
2022-10-07T09:52:21.466Z,21.80
2022-10-07T09:54:52.645Z,21.90
2022-10-07T09:57:33.893Z,21.80
2022-10-07T10:00:25.931Z,21.80
2022-10-07T10:03:04.795Z,21.80
2022-10-07T10:05:35.100Z,21.70
2022-10-07T10:08:07.245Z,21.80
2022-10-07T10:10:37.060Z,21.50
2022-10-07T10:13:07.269Z,21.40
2022-10-07T10:15:43.922Z,21.10
2022-10-07T10:18:33.544Z,21.90
2022-10-07T10:21:27.342Z,21.30
2022-10-07T10:23:59.529Z,21.20
2022-10-07T10:26:48.401Z,21.30
2022-10-07T10:29:30.202Z,22.10
2022-10-07T10:32:27.474Z,21.80
2022-10-07T10:35:04.162Z,21.60
2022-10-07T10:37:58.132Z,21.30
2022-10-07T10:40:34.968Z,21.70
2022-10-07T10:43:21.888Z,22.00
2022-10-07T10:46:10.763Z,21.60
2022-10-07T10:48:46.632Z,21.40
2022-10-07T10:51:33.165Z,21.50
2022-10-07T10:54:18.745Z,21.50
2022-10-07T10:56:58.182Z,21.40
2022-10-07T10:59:51.124Z,21.60
2022-10-07T11:02:45.150Z,21.30
2022-10-07T11:05:17.479Z,21.30
2022-10-07T11:07:51.341Z,21.50
2022-10-07T11:10:23.043Z,20.10
2022-10-07T11:12:56.826Z,19.90
2022-10-07T11:15:30.864Z,19.90
2022-10-07T11:18:05.052Z,19.10
2022-10-07T11:20:38.802Z,20.20
2022-10-07T11:23:20.505Z,20.50
2022-10-07T11:25:55.077Z,20.40
2022-10-07T11:28:28.311Z,20.10
2022-10-07T11:31:04.431Z,20.70
2022-10-07T11:33:44.208Z,19.90
2022-10-07T11:36:17.360Z,19.40
2022-10-07T11:38:46.494Z,19.10
2022-10-07T11:41:20.821Z,19.30
2022-10-07T11:43:56.753Z,19.00
2022-10-07T11:46:29.655Z,18.50
2022-10-07T11:49:03.553Z,18.50
2022-10-07T11:51:36.771Z,17.90
2022-10-07T11:54:07.957Z,17.30
2022-10-07T11:56:45.548Z,17.20
2022-10-07T11:59:34.252Z,17.50
2022-10-07T12:02:02.797Z,18.10
2022-10-07T12:04:39.234Z,18.10
2022-10-07T12:07:40.715Z,17.90
2022-10-07T12:10:24.040Z,17.90
2022-10-07T12:12:55.785Z,17.90
2022-10-07T12:15:33.413Z,17.50
2022-10-07T12:18:27.538Z,18.00
2022-10-07T12:21:06.013Z,17.80
2022-10-07T12:24:11.554Z,17.70
2022-10-07T12:26:47.356Z,18.00
2022-10-07T12:29:32.355Z,17.80
2022-10-07T12:32:02.043Z,17.80
2022-10-07T12:34:39.020Z,17.60
2022-10-07T12:37:49.964Z,17.90
2022-10-07T12:40:27.485Z,17.70
2022-10-07T12:43:10.335Z,17.80
2022-10-07T12:45:43.322Z,17.70
2022-10-07T12:48:20.288Z,17.50
2022-10-07T12:50:51.260Z,17.80
2022-10-07T12:53:20.205Z,17.80
2022-10-07T12:55:50.327Z,18.20
2022-10-07T12:59:04.474Z,16.00
2022-10-07T13:01:54.031Z,14.80
2022-10-07T13:04:40.318Z,14.70
2022-10-07T13:08:10.227Z,13.90
2022-10-07T13:11:36.068Z,14.60
2022-10-07T13:14:11.700Z,14.20
2022-10-07T13:16:45.283Z,14.40
2022-10-07T13:19:23.885Z,13.50
2022-10-07T13:22:01.208Z,13.60
2022-10-07T13:24:30.312Z,12.90
2022-10-07T13:26:58.725Z,12.50
2022-10-07T13:29:30.243Z,13.50
2022-10-07T13:32:07.491Z,12.70
2022-10-07T13:34:35.667Z,12.90
2022-10-07T13:37:27.433Z,11.60
2022-10-07T13:39:55.860Z,11.90
2022-10-07T13:42:28.697Z,13.30
2022-10-07T13:45:03.189Z,11.30
2022-10-07T13:47:35.113Z,11.90
2022-10-07T13:50:04.195Z,13.00
2022-10-07T13:52:37.967Z,12.90
2022-10-07T13:55:21.791Z,12.60
2022-10-07T13:57:49.994Z,12.70
2022-10-07T14:00:18.708Z,12.90
2022-10-07T14:02:50.655Z,13.30
2022-10-07T14:05:22.481Z,13.00
2022-10-07T14:07:56.512Z,12.90
2022-10-07T14:10:27.848Z,13.40
2022-10-07T14:12:59.887Z,14.40
2022-10-07T14:15:30.702Z,14.60
2022-10-07T14:18:00.894Z,14.90
2022-10-07T14:20:31.939Z,15.10
2022-10-07T14:23:05.409Z,14.90
2022-10-07T14:25:52.892Z,14.80
2022-10-07T14:28:29.471Z,15.60
2022-10-07T14:31:38.074Z,15.20
2022-10-07T14:34:31.746Z,15.00
2022-10-07T14:37:07.975Z,15.00
2022-10-07T14:39:39.874Z,14.70
2022-10-07T14:42:13.116Z,14.40
2022-10-07T14:44:43.809Z,14.50
2022-10-07T14:47:15.051Z,14.50
2022-10-07T14:49:43.020Z,14.60
2022-10-07T14:52:14.809Z,14.80
2022-10-07T14:54:44.384Z,14.80
2022-10-07T14:57:12.473Z,14.50
2022-10-07T14:59:40.721Z,14.70
2022-10-07T15:02:08.742Z,14.60
2022-10-07T15:04:36.868Z,14.50
2022-10-07T15:07:04.938Z,14.50
2022-10-07T15:09:33.015Z,14.40
2022-10-07T15:12:02.421Z,14.70
2022-10-07T15:14:30.390Z,14.60
2022-10-07T15:16:58.433Z,14.40
2022-10-07T15:19:26.803Z,15.10
2022-10-07T15:21:56.114Z,15.00
2022-10-07T15:24:24.304Z,14.60
2022-10-07T15:26:52.352Z,15.00
2022-10-07T15:29:22.414Z,14.50
2022-10-07T15:31:52.361Z,14.50
2022-10-07T15:34:20.626Z,15.40
2022-10-07T15:36:50.170Z,15.40
2022-10-07T15:39:18.161Z,15.40
2022-10-07T15:41:46.141Z,15.90
2022-10-07T15:44:17.415Z,14.60
2022-10-07T15:46:48.392Z,15.20
2022-10-07T15:49:17.173Z,15.60
2022-10-07T15:51:46.573Z,15.80
2022-10-07T15:54:14.625Z,15.90
2022-10-07T15:56:43.259Z,15.60
2022-10-07T15:59:11.276Z,15.70
2022-10-07T16:01:39.353Z,15.90
2022-10-07T16:04:15.165Z,15.90
2022-10-07T16:06:49.500Z,15.60
2022-10-07T16:09:18.104Z,15.30
2022-10-07T16:11:46.641Z,16.10
2022-10-07T16:14:15.502Z,16.30
2022-10-07T16:16:43.868Z,15.70
2022-10-07T16:19:16.221Z,17.00
2022-10-07T16:21:44.768Z,16.70
2022-10-07T16:24:16.441Z,16.40
2022-10-07T16:26:46.138Z,16.70
2022-10-07T16:29:34.091Z,16.80
2022-10-07T16:32:02.291Z,16.90
2022-10-07T16:34:31.852Z,16.90
2022-10-07T16:37:00.044Z,16.80
2022-10-07T16:39:28.182Z,16.70
2022-10-07T16:41:58.022Z,17.30
2022-10-07T16:44:25.973Z,16.90
2022-10-07T16:46:56.734Z,16.90
2022-10-07T16:49:27.386Z,17.20
2022-10-07T16:51:57.414Z,17.30
2022-10-07T16:54:25.912Z,17.70
2022-10-07T16:56:54.305Z,17.30
2022-10-07T16:59:24.931Z,17.50
2022-10-07T17:02:02.274Z,17.80
2022-10-07T17:04:30.476Z,17.60
2022-10-07T17:06:59.786Z,17.60
2022-10-07T17:09:27.881Z,17.20
2022-10-07T17:11:56.672Z,17.80
2022-10-07T17:14:24.907Z,18.10
2022-10-07T17:16:56.158Z,18.10
2022-10-07T17:19:26.402Z,18.40
2022-10-07T17:21:56.132Z,18.50
2022-10-07T17:24:25.694Z,18.50
2022-10-07T17:26:55.058Z,18.50
2022-10-07T17:29:25.974Z,18.80
2022-10-07T17:31:54.799Z,18.80
2022-10-07T17:34:23.679Z,18.50
2022-10-07T17:36:51.761Z,18.40
2022-10-07T17:39:19.978Z,18.90
2022-10-07T17:41:49.649Z,18.70
2022-10-07T17:44:17.911Z,18.90
2022-10-07T17:46:46.802Z,18.80
2022-10-07T17:49:14.895Z,18.70
2022-10-07T17:51:43.861Z,19.20
2022-10-07T17:54:13.726Z,19.00
2022-10-07T17:56:45.965Z,19.20
2022-10-07T17:59:15.597Z,19.40
2022-10-07T18:01:44.906Z,19.20
2022-10-07T18:04:18.851Z,19.60
2022-10-07T18:06:49.623Z,19.90
2022-10-07T18:09:19.195Z,19.70
2022-10-07T18:12:04.733Z,19.80
2022-10-07T18:14:54.081Z,20.00
2022-10-07T18:17:24.358Z,20.10
2022-10-07T18:19:52.433Z,20.50
2022-10-07T18:22:20.516Z,20.20
2022-10-07T18:24:48.845Z,20.40
2022-10-07T18:27:17.238Z,20.70
2022-10-07T18:29:46.607Z,21.00
2022-10-07T18:32:14.577Z,20.90
2022-10-07T18:34:42.599Z,21.00
2022-10-07T18:37:10.666Z,20.90
2022-10-07T18:39:38.792Z,21.10
2022-10-07T18:42:07.063Z,21.40
2022-10-07T18:44:35.045Z,21.60
2022-10-07T18:47:04.488Z,21.30
2022-10-07T18:49:32.462Z,22.30
2022-10-07T18:52:00.517Z,21.70
2022-10-07T18:54:28.458Z,21.90
2022-10-07T18:56:56.446Z,21.80
2022-10-07T18:59:24.406Z,22.00
2022-10-07T19:01:52.526Z,22.50
2022-10-07T19:04:22.091Z,22.10
2022-10-07T19:06:50.127Z,22.20
2022-10-07T19:09:20.727Z,22.40
2022-10-07T19:11:49.534Z,22.10
2022-10-07T19:14:17.229Z,22.40
2022-10-07T19:16:48.844Z,22.50
2022-10-07T19:19:21.568Z,22.60
2022-10-07T19:21:53.533Z,22.90
2022-10-07T19:24:43.341Z,22.40
2022-10-07T19:27:11.352Z,22.80
2022-10-07T19:29:39.568Z,22.90
2022-10-07T19:32:08.814Z,23.10
2022-10-07T19:34:38.837Z,23.00
2022-10-07T19:37:06.969Z,23.20
2022-10-07T19:39:35.228Z,23.40
2022-10-07T19:42:03.283Z,23.40
2022-10-07T19:44:33.480Z,23.20
2022-10-07T19:47:01.440Z,23.10
2022-10-07T19:49:29.437Z,23.30
2022-10-07T19:51:58.792Z,23.40
2022-10-07T19:54:26.758Z,23.60
2022-10-07T19:56:54.725Z,23.40
2022-10-07T19:59:22.691Z,23.50
2022-10-07T20:01:52.310Z,23.20
2022-10-07T20:04:21.505Z,23.40
2022-10-07T20:06:49.972Z,23.20
2022-10-07T20:09:20.696Z,23.20
2022-10-07T20:11:48.775Z,23.60
2022-10-07T20:14:16.933Z,23.30
2022-10-07T20:16:45.120Z,23.50
2022-10-07T20:19:18.372Z,23.20
2022-10-07T20:21:47.601Z,23.50
2022-10-07T20:24:16.971Z,23.10
2022-10-07T20:26:46.424Z,23.00
2022-10-07T20:29:15.972Z,23.40
2022-10-07T20:31:44.457Z,23.40
2022-10-07T20:34:15.876Z,23.40
2022-10-07T20:36:44.990Z,23.90
2022-10-07T20:39:35.480Z,23.70
2022-10-07T20:42:27.199Z,24.10
2022-10-07T20:44:55.765Z,24.60
2022-10-07T20:47:25.829Z,24.00
2022-10-07T20:49:56.243Z,24.20
2022-10-07T20:52:27.068Z,24.60
2022-10-07T20:54:55.819Z,25.00
2022-10-07T20:57:28.329Z,24.90
2022-10-07T20:59:56.783Z,25.10
2022-10-07T21:02:25.451Z,25.00
2022-10-07T21:04:53.546Z,24.90
2022-10-07T21:07:21.690Z,25.20
2022-10-07T21:09:49.699Z,25.20
2022-10-07T21:12:18.749Z,25.50
2022-10-07T21:14:48.512Z,25.20
2022-10-07T21:17:16.858Z,25.30
2022-10-07T21:19:44.932Z,25.30
2022-10-07T21:22:12.941Z,25.00
2022-10-07T21:24:41.074Z,25.40
2022-10-07T21:27:09.250Z,25.20
2022-10-07T21:29:40.730Z,25.30
2022-10-07T21:32:10.868Z,25.90
2022-10-07T21:34:40.124Z,25.50
2022-10-07T21:37:08.203Z,25.30
2022-10-07T21:39:36.178Z,25.40
2022-10-07T21:42:05.422Z,25.60
2022-10-07T21:44:34.728Z,25.30
2022-10-07T21:47:04.724Z,25.80
2022-10-07T21:49:34.088Z,25.70
2022-10-07T21:52:02.057Z,25.70
2022-10-07T21:54:30.248Z,26.00
2022-10-07T21:56:58.243Z,26.40
2022-10-07T21:59:26.215Z,26.50
2022-10-07T22:01:54.237Z,26.40
2022-10-07T22:04:22.220Z,26.10
2022-10-07T22:07:09.123Z,26.00
2022-10-07T22:09:37.150Z,26.40
2022-10-07T22:12:05.413Z,25.80
2022-10-07T22:14:33.401Z,26.00
2022-10-07T22:17:01.381Z,26.40
2022-10-07T22:19:29.296Z,26.60
2022-10-07T22:21:58.765Z,26.60
2022-10-07T22:24:26.697Z,26.40
2022-10-07T22:26:55.703Z,26.60
2022-10-07T22:29:25.105Z,26.60
2022-10-07T22:31:53.417Z,26.80
2022-10-07T22:34:38.855Z,26.90
2022-10-07T22:37:08.172Z,26.50
2022-10-07T22:39:36.156Z,26.70
2022-10-07T22:42:05.029Z,26.80
2022-10-07T22:44:32.955Z,27.00
2022-10-07T22:47:02.169Z,27.00
2022-10-07T22:49:30.568Z,27.10
2022-10-07T22:52:00.249Z,27.00
2022-10-07T22:54:30.330Z,26.90
2022-10-07T22:56:58.265Z,27.00
2022-10-07T22:59:26.241Z,26.80
2022-10-07T23:01:54.257Z,27.10
2022-10-07T23:04:22.250Z,26.90
2022-10-07T23:06:50.223Z,26.60
2022-10-07T23:09:18.261Z,26.80
2022-10-07T23:11:47.646Z,26.90
2022-10-07T23:14:15.951Z,27.00
2022-10-07T23:16:44.787Z,27.30
2022-10-07T23:19:12.952Z,27.00
2022-10-07T23:21:40.952Z,27.40
2022-10-07T23:24:09.847Z,26.90
2022-10-07T23:26:38.549Z,27.30
2022-10-07T23:29:08.456Z,27.40
2022-10-07T23:31:36.567Z,27.40
2022-10-07T23:34:06.295Z,27.40
2022-10-07T23:36:35.084Z,26.90
2022-10-07T23:39:03.160Z,27.30
2022-10-07T23:41:32.427Z,27.30
2022-10-07T23:44:02.878Z,27.70
2022-10-07T23:46:36.208Z,27.50
2022-10-07T23:49:05.193Z,27.60
2022-10-07T23:51:34.080Z,27.60
2022-10-07T23:54:05.629Z,27.80
2022-10-07T23:56:34.459Z,27.70
2022-10-07T23:59:03.312Z,27.60
